createdAt,value
2023-05-05T00:01:28.072Z,2.28
2023-05-05T00:03:55.067Z,2.40
2023-05-05T00:06:21.980Z,2.42
2023-05-05T00:08:48.906Z,2.55
2023-05-05T00:11:15.903Z,2.67
2023-05-05T00:13:42.748Z,2.55
2023-05-05T00:16:09.669Z,2.55
2023-05-05T00:18:36.591Z,2.42
2023-05-05T00:21:04.532Z,2.65
2023-05-05T00:23:31.432Z,2.10
2023-05-05T00:25:58.316Z,2.60
2023-05-05T00:28:25.325Z,2.20
2023-05-05T00:30:52.182Z,2.22
2023-05-05T00:33:19.118Z,2.88
2023-05-05T00:35:45.909Z,2.33
2023-05-05T00:38:13.051Z,2.28
2023-05-05T00:40:39.879Z,2.20
2023-05-05T00:43:08.251Z,2.60
2023-05-05T00:45:37.389Z,2.47
2023-05-05T00:48:05.336Z,2.65
2023-05-05T00:50:32.495Z,2.55
2023-05-05T00:53:04.729Z,2.38
2023-05-05T00:55:33.360Z,2.70
2023-05-05T00:58:03.222Z,2.33
2023-05-05T01:00:30.866Z,2.93
2023-05-05T01:02:58.069Z,2.22
2023-05-05T01:05:27.080Z,2.63
2023-05-05T01:08:13.022Z,2.72
2023-05-05T01:10:55.070Z,2.45
2023-05-05T01:13:46.161Z,2.72
2023-05-05T01:16:26.882Z,2.95
2023-05-05T01:19:04.981Z,2.53
2023-05-05T01:21:43.480Z,2.63
2023-05-05T01:24:41.083Z,2.47
2023-05-05T01:27:51.242Z,2.10
2023-05-05T01:30:42.913Z,3.00
2023-05-05T01:33:15.378Z,2.65
2023-05-05T01:35:50.231Z,2.70
2023-05-05T01:38:26.231Z,3.17
2023-05-05T01:41:01.880Z,2.42
2023-05-05T01:43:34.612Z,3.22
2023-05-05T01:46:03.542Z,2.97
2023-05-05T01:48:33.350Z,2.70
2023-05-05T01:51:03.697Z,2.53
2023-05-05T01:53:32.656Z,2.65
2023-05-05T01:56:00.542Z,2.60
2023-05-05T01:58:30.016Z,3.13
2023-05-05T02:00:58.898Z,3.30
2023-05-05T02:03:28.931Z,2.88
2023-05-05T02:05:58.217Z,3.25
2023-05-05T02:08:27.441Z,3.00
2023-05-05T02:10:55.727Z,2.95
2023-05-05T02:13:26.108Z,3.13
2023-05-05T02:15:55.274Z,2.50
2023-05-05T02:18:25.867Z,2.78
2023-05-05T02:20:53.165Z,2.83
2023-05-05T02:23:20.368Z,2.50
2023-05-05T02:25:53.436Z,2.72
2023-05-05T02:28:49.024Z,2.50
2023-05-05T02:31:20.443Z,2.60
2023-05-05T02:33:51.021Z,2.25
2023-05-05T02:36:27.815Z,2.50
2023-05-05T02:39:03.568Z,3.25
2023-05-05T02:41:34.692Z,2.75
2023-05-05T02:44:05.131Z,2.53
2023-05-05T02:46:32.702Z,2.80
2023-05-05T02:48:59.781Z,2.67
2023-05-05T02:51:27.660Z,2.80
2023-05-05T02:53:55.024Z,2.42
2023-05-05T02:56:42.825Z,2.45
2023-05-05T02:59:56.604Z,2.30
2023-05-05T03:02:51.865Z,2.00
2023-05-05T03:05:36.326Z,2.30
2023-05-05T03:08:23.216Z,2.80
2023-05-05T03:11:13.870Z,2.80
2023-05-05T03:13:44.458Z,2.15
2023-05-05T03:16:12.457Z,2.00
2023-05-05T03:18:42.350Z,2.80
2023-05-05T03:21:10.014Z,2.35
2023-05-05T03:23:37.287Z,2.50
2023-05-05T03:26:04.124Z,2.30
2023-05-05T03:28:31.048Z,2.42
2023-05-05T03:30:57.935Z,2.28
2023-05-05T03:33:24.750Z,2.00
2023-05-05T03:35:51.522Z,2.67
2023-05-05T03:38:18.477Z,1.90
2023-05-05T03:40:45.288Z,2.63
2023-05-05T03:43:12.315Z,2.42
2023-05-05T03:45:39.318Z,3.85
2023-05-05T03:48:06.966Z,2.08
2023-05-05T03:50:33.871Z,2.15
2023-05-05T03:53:00.916Z,2.10
2023-05-05T03:55:27.738Z,2.05
2023-05-05T03:57:54.592Z,2.63
2023-05-05T04:00:21.895Z,2.22
2023-05-05T04:02:48.898Z,2.10
2023-05-05T04:05:16.029Z,2.30
2023-05-05T04:07:42.935Z,2.33
2023-05-05T04:10:10.293Z,2.17
2023-05-05T04:12:37.360Z,2.20
2023-05-05T04:15:04.801Z,2.17
2023-05-05T04:17:31.641Z,1.85
2023-05-05T04:19:58.553Z,2.35
2023-05-05T04:22:25.653Z,2.10
2023-05-05T04:24:52.595Z,2.35
2023-05-05T04:27:19.575Z,2.45
2023-05-05T04:29:46.376Z,2.72
2023-05-05T04:32:13.267Z,1.98
2023-05-05T04:34:40.087Z,2.20
2023-05-05T04:37:06.976Z,2.03
2023-05-05T04:39:33.886Z,2.42
2023-05-05T04:42:00.725Z,2.15
2023-05-05T04:44:27.971Z,2.00
2023-05-05T04:46:55.127Z,2.10
2023-05-05T04:49:22.121Z,2.08
2023-05-05T04:51:49.123Z,2.67
2023-05-05T04:54:16.085Z,2.20
2023-05-05T04:56:42.865Z,2.45
2023-05-05T04:59:09.797Z,2.38
2023-05-05T05:01:38.414Z,2.72
2023-05-05T05:04:05.895Z,2.90
2023-05-05T05:06:32.978Z,2.67
2023-05-05T05:09:00.592Z,2.25
2023-05-05T05:11:27.656Z,2.72
2023-05-05T05:13:54.646Z,2.20
2023-05-05T05:16:21.892Z,2.72
2023-05-05T05:18:48.834Z,2.10
2023-05-05T05:21:15.740Z,2.30
2023-05-05T05:23:42.570Z,2.25
2023-05-05T05:26:09.517Z,1.90
2023-05-05T05:28:36.406Z,1.90
2023-05-05T05:31:03.271Z,2.90
2023-05-05T05:33:30.163Z,1.88
2023-05-05T05:35:57.009Z,2.05
2023-05-05T05:38:23.830Z,2.10
2023-05-05T05:40:50.744Z,2.05
2023-05-05T05:43:17.631Z,1.90
2023-05-05T05:45:44.501Z,2.28
2023-05-05T05:48:11.484Z,2.28
2023-05-05T05:50:38.634Z,2.78
2023-05-05T05:53:05.621Z,2.60
2023-05-05T05:55:32.898Z,2.22
2023-05-05T05:58:00.156Z,2.03
2023-05-05T06:00:27.100Z,2.33
2023-05-05T06:02:53.983Z,2.70
2023-05-05T06:05:20.856Z,2.28
2023-05-05T06:07:48.016Z,2.35
2023-05-05T06:10:26.472Z,2.33
2023-05-05T06:12:54.861Z,2.35
2023-05-05T06:15:21.778Z,2.20
2023-05-05T06:17:48.749Z,2.15
2023-05-05T06:20:15.659Z,1.85
2023-05-05T06:22:42.777Z,2.53
2023-05-05T06:25:09.855Z,2.13
2023-05-05T06:27:36.728Z,2.50
2023-05-05T06:30:03.896Z,1.98
2023-05-05T06:32:30.839Z,2.28
2023-05-05T06:34:57.730Z,2.25
2023-05-05T06:37:24.569Z,2.40
2023-05-05T06:39:51.433Z,2.10
2023-05-05T06:42:18.359Z,2.10
2023-05-05T06:44:45.205Z,2.17
2023-05-05T06:47:12.022Z,1.90
2023-05-05T06:49:38.912Z,2.17
2023-05-05T06:52:08.436Z,1.77
2023-05-05T06:54:35.441Z,1.80
2023-05-05T06:57:02.295Z,2.08
2023-05-05T06:59:29.357Z,1.70
2023-05-05T07:01:56.556Z,1.55
2023-05-05T07:04:23.653Z,1.58
2023-05-05T07:06:50.614Z,2.13
2023-05-05T07:09:18.562Z,1.83
2023-05-05T07:11:46.476Z,1.85
2023-05-05T07:14:13.318Z,1.70
2023-05-05T07:16:40.407Z,1.85
2023-05-05T07:19:07.411Z,1.98
2023-05-05T07:21:35.064Z,1.48
2023-05-05T07:24:03.777Z,1.67
2023-05-05T07:26:30.914Z,1.60
2023-05-05T07:29:01.174Z,2.05
2023-05-05T07:31:28.098Z,1.67
2023-05-05T07:33:55.086Z,1.92
2023-05-05T07:36:22.406Z,1.50
2023-05-05T07:38:49.269Z,1.88
2023-05-05T07:41:16.443Z,1.88
2023-05-05T07:43:44.605Z,2.33
2023-05-05T07:46:12.317Z,1.60
2023-05-05T07:48:41.587Z,1.65
2023-05-05T07:51:09.467Z,1.67
2023-05-05T07:53:36.984Z,2.15
2023-05-05T07:56:04.061Z,1.90
2023-05-05T07:58:30.943Z,1.60
2023-05-05T08:00:57.787Z,1.67
2023-05-05T08:03:25.057Z,1.92
2023-05-05T08:05:54.998Z,1.45
2023-05-05T08:08:25.160Z,2.00
2023-05-05T08:10:53.263Z,1.50
2023-05-05T08:13:20.716Z,1.70
2023-05-05T08:15:47.856Z,1.20
2023-05-05T08:18:15.000Z,1.50
2023-05-05T08:20:41.995Z,1.88
2023-05-05T08:23:08.845Z,1.80
2023-05-05T08:25:36.044Z,1.50
2023-05-05T08:28:03.351Z,1.42
2023-05-05T08:30:31.084Z,1.35
2023-05-05T08:32:58.811Z,1.90
2023-05-05T08:35:25.724Z,1.55
2023-05-05T08:37:52.705Z,1.38
2023-05-05T08:40:21.445Z,1.38
2023-05-05T08:42:48.518Z,2.13
2023-05-05T08:45:15.972Z,2.80
2023-05-05T08:47:44.075Z,2.85
2023-05-05T08:50:11.896Z,1.50
2023-05-05T08:52:43.817Z,1.70
2023-05-05T08:55:24.435Z,2.17
2023-05-05T08:57:56.614Z,1.30
2023-05-05T09:00:24.487Z,1.55
2023-05-05T09:02:54.519Z,1.30
2023-05-05T09:05:22.026Z,1.30
2023-05-05T09:07:50.645Z,1.08
2023-05-05T09:10:18.957Z,1.35
2023-05-05T09:12:46.180Z,1.38
2023-05-05T09:15:15.230Z,1.35
2023-05-05T09:17:43.238Z,1.77
2023-05-05T09:20:36.938Z,1.50
2023-05-05T09:23:17.028Z,1.60
2023-05-05T09:26:04.277Z,1.65
2023-05-05T09:28:31.421Z,1.40
2023-05-05T09:31:14.070Z,1.48
2023-05-05T09:33:41.897Z,1.55
2023-05-05T09:36:08.832Z,2.13
2023-05-05T09:38:36.702Z,1.30
2023-05-05T09:41:05.310Z,1.25
2023-05-05T09:43:52.444Z,1.45
2023-05-05T09:46:19.406Z,1.30
2023-05-05T09:48:46.533Z,1.20
2023-05-05T09:51:13.459Z,1.65
2023-05-05T09:53:42.292Z,1.50
2023-05-05T09:56:10.315Z,1.40
2023-05-05T09:58:37.371Z,1.80
2023-05-05T10:01:04.327Z,2.40
2023-05-05T10:03:31.443Z,1.88
2023-05-05T10:06:00.965Z,1.70
2023-05-05T10:08:31.394Z,1.50
2023-05-05T10:11:01.472Z,1.25
2023-05-05T10:15:57.683Z,1.00
2023-05-05T10:18:27.858Z,0.98
2023-05-05T10:24:02.268Z,0.93
2023-05-05T10:26:39.595Z,1.10
2023-05-05T10:29:20.049Z,0.93
2023-05-05T10:31:53.944Z,1.20
2023-05-05T10:34:38.480Z,0.98
2023-05-05T10:37:07.088Z,0.90
2023-05-05T10:39:37.388Z,1.00
2023-05-05T10:42:04.560Z,1.17
2023-05-05T10:44:34.780Z,0.70
2023-05-05T10:47:03.265Z,1.08
2023-05-05T10:49:47.002Z,1.13
2023-05-05T10:52:47.028Z,0.90
2023-05-05T10:57:53.668Z,0.80
2023-05-05T11:00:50.812Z,0.77
2023-05-05T11:03:17.838Z,0.93
2023-05-05T11:06:07.844Z,1.05
2023-05-05T11:08:40.252Z,1.13
2023-05-05T11:11:08.130Z,0.90
2023-05-05T11:13:34.981Z,0.90
2023-05-05T11:16:04.551Z,1.15
2023-05-05T11:18:40.569Z,1.02
2023-05-05T11:21:17.142Z,1.17
2023-05-05T11:24:29.166Z,1.02
2023-05-05T11:26:56.021Z,0.93
2023-05-05T11:29:23.036Z,1.27
2023-05-05T11:32:13.081Z,0.82
2023-05-05T11:34:50.730Z,1.10
2023-05-05T11:37:17.655Z,1.27
2023-05-05T11:40:01.791Z,1.23
2023-05-05T11:42:30.272Z,1.10
2023-05-05T11:44:57.700Z,1.20
2023-05-05T11:47:27.151Z,1.42
2023-05-05T11:49:55.534Z,1.10
2023-05-05T11:52:25.623Z,1.70
2023-05-05T11:54:52.703Z,1.60
2023-05-05T11:57:27.906Z,1.73
2023-05-05T12:00:02.330Z,1.67
2023-05-05T12:02:30.355Z,1.55
2023-05-05T12:04:59.695Z,1.75
2023-05-05T12:07:29.399Z,1.85
2023-05-05T12:09:56.926Z,1.65
2023-05-05T12:12:42.384Z,1.60
2023-05-05T12:15:10.379Z,1.33
2023-05-05T12:17:46.077Z,1.33
2023-05-05T12:20:13.550Z,1.63
2023-05-05T12:22:40.700Z,1.70
2023-05-05T12:25:08.468Z,1.90
2023-05-05T12:27:35.617Z,1.40
2023-05-05T12:30:17.505Z,1.65
2023-05-05T12:32:46.015Z,2.28
2023-05-05T12:35:13.860Z,1.70
2023-05-05T12:37:42.283Z,1.50
2023-05-05T12:40:49.921Z,1.75
2023-05-05T12:43:31.654Z,1.50
2023-05-05T12:46:03.669Z,2.30
2023-05-05T12:48:30.913Z,1.70
2023-05-05T12:51:16.297Z,2.00
2023-05-05T12:53:44.519Z,2.38
2023-05-05T12:56:38.780Z,1.67
2023-05-05T12:59:28.508Z,2.13
2023-05-05T13:01:58.057Z,1.92
2023-05-05T13:04:27.930Z,2.27
2023-05-05T13:07:15.330Z,2.83
2023-05-05T13:09:42.739Z,1.80
2023-05-05T13:12:12.085Z,2.28
2023-05-05T13:14:40.753Z,1.80
2023-05-05T13:17:07.901Z,2.05
2023-05-05T13:19:41.949Z,2.10
2023-05-05T13:22:12.877Z,1.85
2023-05-05T13:24:50.641Z,1.85
2023-05-05T13:27:19.670Z,1.98
2023-05-05T13:29:46.746Z,1.65
2023-05-05T13:32:13.640Z,2.08
2023-05-05T13:34:41.443Z,1.60
2023-05-05T13:37:08.702Z,1.40
2023-05-05T13:39:35.932Z,1.45
2023-05-05T13:42:03.015Z,1.50
2023-05-05T13:44:29.854Z,2.05
2023-05-05T13:46:56.963Z,1.80
2023-05-05T13:49:23.860Z,1.48
2023-05-05T13:51:50.798Z,1.77
2023-05-05T13:54:17.698Z,1.63
2023-05-05T13:56:44.558Z,1.52
2023-05-05T13:59:11.385Z,1.75
2023-05-05T14:01:38.285Z,1.75
2023-05-05T14:04:05.915Z,1.45
2023-05-05T14:06:33.925Z,1.48
2023-05-05T14:09:01.657Z,1.58
2023-05-05T14:11:28.532Z,1.70
2023-05-05T14:13:55.422Z,1.52
2023-05-05T14:16:22.311Z,1.70
2023-05-05T14:18:49.246Z,1.77
2023-05-05T14:21:16.092Z,1.70
2023-05-05T14:23:42.911Z,1.15
2023-05-05T14:26:09.817Z,1.33
2023-05-05T14:28:36.636Z,1.65
2023-05-05T14:31:03.567Z,1.85
2023-05-05T14:33:30.495Z,1.75
2023-05-05T14:35:57.465Z,1.80
2023-05-05T14:38:24.476Z,1.70
2023-05-05T14:40:51.353Z,1.60
2023-05-05T14:43:18.223Z,1.35
2023-05-05T14:45:45.122Z,1.30
2023-05-05T14:48:12.141Z,1.33
2023-05-05T14:50:40.495Z,1.90
2023-05-05T14:53:07.307Z,1.63
2023-05-05T14:55:34.281Z,1.90
2023-05-05T14:58:01.212Z,1.55
2023-05-05T15:00:28.559Z,1.80
2023-05-05T15:02:55.433Z,1.83
2023-05-05T15:05:22.336Z,1.60
2023-05-05T15:07:49.331Z,1.67
2023-05-05T15:10:16.301Z,1.55
2023-05-05T15:12:43.431Z,1.80
2023-05-05T15:15:11.135Z,1.70
2023-05-05T15:17:38.919Z,2.03
2023-05-05T15:20:07.136Z,1.80
2023-05-05T15:22:34.422Z,1.42
2023-05-05T15:25:01.376Z,1.63
2023-05-05T15:27:28.402Z,1.88
2023-05-05T15:29:55.331Z,1.65
2023-05-05T15:32:22.302Z,2.22
2023-05-05T15:34:50.543Z,1.77
2023-05-05T15:37:17.802Z,2.20
2023-05-05T15:39:44.747Z,1.77
2023-05-05T15:42:11.611Z,2.25
2023-05-05T15:44:38.623Z,1.48
2023-05-05T15:47:06.851Z,2.00
2023-05-05T15:49:33.734Z,2.10
2023-05-05T15:52:00.693Z,1.85
2023-05-05T15:54:27.638Z,1.67
2023-05-05T15:56:55.053Z,1.73
2023-05-05T15:59:22.641Z,1.70
2023-05-05T16:01:49.630Z,1.38
2023-05-05T16:04:16.510Z,1.98
2023-05-05T16:06:43.529Z,2.20
2023-05-05T16:09:10.452Z,2.00
2023-05-05T16:11:37.463Z,2.08
2023-05-05T16:14:04.664Z,2.08
2023-05-05T16:16:31.648Z,2.08
2023-05-05T16:18:58.591Z,1.73
2023-05-05T16:21:25.724Z,1.90
2023-05-05T16:23:52.802Z,2.05
2023-05-05T16:26:19.637Z,2.40
2023-05-05T16:28:46.492Z,1.90
2023-05-05T16:31:13.544Z,2.15
2023-05-05T16:33:43.677Z,2.28
2023-05-05T16:36:12.447Z,2.13
2023-05-05T16:38:40.838Z,2.58
2023-05-05T16:41:08.295Z,2.08
2023-05-05T16:43:37.304Z,2.17
2023-05-05T16:46:04.695Z,2.83
2023-05-05T16:48:31.747Z,2.92
2023-05-05T16:50:58.886Z,2.35
2023-05-05T16:53:26.166Z,2.47
2023-05-05T16:55:54.171Z,2.03
2023-05-05T16:58:22.796Z,2.25
2023-05-05T17:00:50.858Z,1.92
2023-05-05T17:03:19.354Z,2.17
2023-05-05T17:05:50.266Z,2.05
2023-05-05T17:08:17.464Z,1.95
2023-05-05T17:10:45.571Z,1.90
2023-05-05T17:13:14.254Z,1.92
2023-05-05T17:15:41.956Z,2.20
2023-05-05T17:18:09.173Z,2.28
2023-05-05T17:20:36.411Z,2.05
2023-05-05T17:23:03.455Z,1.95
2023-05-05T17:25:30.672Z,1.95
2023-05-05T17:27:57.796Z,2.20
2023-05-05T17:30:24.950Z,2.00
2023-05-05T17:32:52.510Z,2.15
2023-05-05T17:35:19.873Z,2.47
2023-05-05T17:37:46.818Z,2.30
2023-05-05T17:40:13.770Z,2.35
2023-05-05T17:42:40.665Z,2.47
2023-05-05T17:45:08.856Z,2.50
2023-05-05T17:47:36.121Z,1.92
2023-05-05T17:50:03.623Z,2.55
2023-05-05T17:52:30.591Z,2.28
2023-05-05T17:54:57.647Z,2.72
2023-05-05T17:57:24.474Z,2.75
2023-05-05T17:59:53.336Z,2.90
2023-05-05T18:02:20.502Z,2.95
2023-05-05T18:04:47.805Z,2.75
2023-05-05T18:07:15.098Z,3.55
2023-05-05T18:09:45.343Z,3.35
2023-05-05T18:12:12.241Z,2.95
2023-05-05T18:14:39.136Z,3.25
2023-05-05T18:17:06.184Z,2.72
2023-05-05T18:19:33.418Z,2.92
2023-05-05T18:22:00.507Z,2.67
2023-05-05T18:24:28.110Z,2.58
2023-05-05T18:26:55.191Z,2.83
2023-05-05T18:29:22.370Z,2.53
2023-05-05T18:31:52.991Z,2.88
2023-05-05T18:34:20.680Z,2.72
2023-05-05T18:36:50.160Z,2.35
2023-05-05T18:39:17.752Z,2.63
2023-05-05T18:41:44.684Z,2.42
2023-05-05T18:44:11.666Z,2.88
2023-05-05T18:46:38.672Z,2.95
2023-05-05T18:49:05.763Z,3.15
2023-05-05T18:51:32.755Z,2.92
2023-05-05T18:54:00.911Z,3.50
2023-05-05T18:56:27.895Z,3.28
2023-05-05T18:58:54.926Z,3.90
2023-05-05T19:01:22.108Z,5.82
2023-05-05T19:03:49.816Z,3.20
2023-05-05T19:06:17.339Z,1.60
2023-05-05T19:08:45.604Z,0.85
2023-05-05T19:11:14.689Z,1.00
2023-05-05T19:13:42.340Z,0.60
2023-05-05T19:16:11.181Z,0.50
2023-05-05T19:18:42.351Z,0.90
2023-05-05T19:21:09.629Z,0.68
2023-05-05T19:23:38.091Z,0.90
2023-05-05T19:26:05.738Z,0.82
2023-05-05T19:28:32.951Z,0.70
2023-05-05T19:30:59.940Z,0.70
2023-05-05T19:33:29.889Z,0.98
2023-05-05T19:35:56.813Z,1.20
2023-05-05T19:38:24.106Z,1.10
2023-05-05T19:40:51.163Z,1.02
2023-05-05T19:43:18.120Z,0.73
2023-05-05T19:45:45.145Z,0.98
2023-05-05T19:48:12.172Z,0.55
2023-05-05T19:50:39.222Z,0.50
2023-05-05T19:53:06.199Z,0.57
2023-05-05T19:55:33.208Z,0.60
2023-05-05T19:58:00.134Z,0.70
2023-05-05T20:00:27.312Z,1.35
2023-05-05T20:02:54.555Z,0.98
2023-05-05T20:05:22.186Z,0.90
2023-05-05T20:07:50.813Z,0.82
2023-05-05T20:10:18.001Z,0.40
2023-05-05T20:12:49.173Z,0.60
2023-05-05T20:15:20.231Z,0.88
2023-05-05T20:17:48.405Z,0.75
2023-05-05T20:20:21.048Z,0.60
2023-05-05T20:22:49.597Z,0.70
2023-05-05T20:25:17.124Z,0.75
2023-05-05T20:27:45.777Z,0.45
2023-05-05T20:30:13.241Z,0.73
2023-05-05T20:32:44.293Z,0.47
2023-05-05T20:35:12.809Z,0.75
2023-05-05T20:37:40.592Z,0.60
2023-05-05T20:40:08.886Z,0.70
2023-05-05T20:42:36.993Z,0.50
2023-05-05T20:45:07.501Z,0.50
2023-05-05T20:47:35.715Z,0.60
2023-05-05T20:50:03.151Z,0.88
2023-05-05T20:52:30.198Z,0.50
2023-05-05T20:54:57.106Z,0.70
2023-05-05T20:57:24.405Z,0.70
2023-05-05T20:59:51.319Z,0.55
2023-05-05T21:02:18.878Z,0.50
2023-05-05T21:04:45.729Z,0.60
2023-05-05T21:07:12.568Z,0.70
2023-05-05T21:09:39.663Z,0.77
2023-05-05T21:12:07.220Z,0.70
2023-05-05T21:14:34.032Z,0.73
2023-05-05T21:17:01.168Z,0.70
2023-05-05T21:19:28.044Z,2.20
2023-05-05T21:21:58.967Z,0.88
2023-05-05T21:24:26.116Z,0.88
2023-05-05T21:26:53.002Z,0.80
2023-05-05T21:29:23.120Z,0.82
2023-05-05T21:31:50.396Z,0.82
2023-05-05T21:34:18.182Z,0.60
2023-05-05T21:36:44.987Z,0.63
2023-05-05T21:39:12.145Z,0.80
2023-05-05T21:41:38.982Z,0.70
2023-05-05T21:44:05.963Z,0.70
2023-05-05T21:46:33.131Z,0.88
2023-05-05T21:49:00.045Z,0.55
2023-05-05T21:51:27.279Z,0.68
2023-05-05T21:53:54.135Z,0.82
2023-05-05T21:56:20.918Z,1.30
2023-05-05T21:58:47.794Z,0.93
2023-05-05T22:01:14.617Z,0.98
2023-05-05T22:03:43.537Z,0.88
2023-05-05T22:06:11.642Z,0.82
2023-05-05T22:08:38.488Z,0.90
2023-05-05T22:11:05.389Z,1.08
2023-05-05T22:13:32.209Z,1.50
2023-05-05T22:15:59.122Z,0.90
2023-05-05T22:18:25.954Z,1.00
2023-05-05T22:20:53.105Z,1.02
2023-05-05T22:23:19.968Z,1.00
2023-05-05T22:25:46.800Z,0.90
2023-05-05T22:28:13.698Z,1.00
2023-05-05T22:30:40.994Z,1.00
2023-05-05T22:33:07.992Z,1.00
2023-05-05T22:35:35.152Z,1.00
2023-05-05T22:38:02.001Z,1.10
2023-05-05T22:40:28.891Z,0.90
2023-05-05T22:42:56.000Z,1.35
2023-05-05T22:45:23.396Z,1.30
2023-05-05T22:47:50.687Z,1.02
2023-05-05T22:50:17.946Z,1.27
2023-05-05T22:52:45.004Z,1.30
2023-05-05T22:55:15.214Z,1.30
2023-05-05T22:57:42.509Z,1.05
2023-05-05T23:00:10.738Z,1.13
2023-05-05T23:02:38.517Z,1.48
2023-05-05T23:05:05.991Z,1.40
2023-05-05T23:07:32.864Z,1.15
2023-05-05T23:09:59.816Z,1.40
2023-05-05T23:12:26.654Z,1.08
2023-05-05T23:14:53.533Z,1.10
2023-05-05T23:17:20.562Z,1.30
2023-05-05T23:19:48.815Z,1.55
2023-05-05T23:22:15.926Z,1.23
2023-05-05T23:24:42.854Z,1.33
2023-05-05T23:27:09.970Z,1.17
2023-05-05T23:29:36.830Z,1.55
2023-05-05T23:32:03.751Z,1.30
2023-05-05T23:34:30.694Z,1.38
2023-05-05T23:36:57.536Z,1.40
2023-05-05T23:39:24.365Z,1.40
2023-05-05T23:41:51.196Z,1.58
2023-05-05T23:44:18.066Z,1.20
2023-05-05T23:46:44.911Z,1.23
2023-05-05T23:49:11.789Z,1.60
2023-05-05T23:51:38.807Z,1.15
2023-05-05T23:54:05.863Z,1.40
2023-05-05T23:56:32.740Z,1.05
2023-05-05T23:58:59.643Z,1.38
